sensor_id;sensor_type;location;lat;lon;timestamp;temperature;humidity
19180;DHT22;9722;48.754;8.868;2023-05-20T00:03:01;10.90;95.50
19180;DHT22;9722;48.754;8.868;2023-05-20T00:06:22;10.80;95.50
19180;DHT22;9722;48.754;8.868;2023-05-20T00:09:42;10.80;95.60
19180;DHT22;9722;48.754;8.868;2023-05-20T00:13:03;10.80;95.70
19180;DHT22;9722;48.754;8.868;2023-05-20T00:16:24;10.70;95.70
19180;DHT22;9722;48.754;8.868;2023-05-20T00:19:44;10.70;95.90
19180;DHT22;9722;48.754;8.868;2023-05-20T00:23:05;10.60;96.00
19180;DHT22;9722;48.754;8.868;2023-05-20T00:26:26;10.60;96.10
19180;DHT22;9722;48.754;8.868;2023-05-20T00:29:46;10.60;96.20
19180;DHT22;9722;48.754;8.868;2023-05-20T00:33:07;10.60;96.30
19180;DHT22;9722;48.754;8.868;2023-05-20T00:36:27;10.60;96.40
19180;DHT22;9722;48.754;8.868;2023-05-20T00:39:48;10.60;96.60
19180;DHT22;9722;48.754;8.868;2023-05-20T00:43:09;10.60;96.60
19180;DHT22;9722;48.754;8.868;2023-05-20T00:46:30;10.70;96.70
19180;DHT22;9722;48.754;8.868;2023-05-20T00:49:50;10.70;96.70
19180;DHT22;9722;48.754;8.868;2023-05-20T00:53:11;10.70;96.70
19180;DHT22;9722;48.754;8.868;2023-05-20T00:56:32;10.80;96.70
19180;DHT22;9722;48.754;8.868;2023-05-20T00:59:52;10.90;96.70
19180;DHT22;9722;48.754;8.868;2023-05-20T01:03:13;10.90;96.60
19180;DHT22;9722;48.754;8.868;2023-05-20T01:06:35;11.00;96.60
19180;DHT22;9722;48.754;8.868;2023-05-20T01:09:57;11.00;96.60
19180;DHT22;9722;48.754;8.868;2023-05-20T01:13:20;11.10;96.80
19180;DHT22;9722;48.754;8.868;2023-05-20T01:16:44;11.10;96.30
19180;DHT22;9722;48.754;8.868;2023-05-20T01:20:08;11.20;96.30
19180;DHT22;9722;48.754;8.868;2023-05-20T01:23:36;11.20;96.30
19180;DHT22;9722;48.754;8.868;2023-05-20T01:26:57;11.30;96.30
19180;DHT22;9722;48.754;8.868;2023-05-20T01:30:18;11.30;96.20
19180;DHT22;9722;48.754;8.868;2023-05-20T01:33:40;11.40;96.10
19180;DHT22;9722;48.754;8.868;2023-05-20T01:37:03;11.50;96.00
19180;DHT22;9722;48.754;8.868;2023-05-20T01:40:25;11.60;96.00
19180;DHT22;9722;48.754;8.868;2023-05-20T01:43:47;11.60;95.80
19180;DHT22;9722;48.754;8.868;2023-05-20T01:47:07;11.70;95.80
19180;DHT22;9722;48.754;8.868;2023-05-20T01:50:28;11.70;95.70
19180;DHT22;9722;48.754;8.868;2023-05-20T01:53:48;11.80;95.60
19180;DHT22;9722;48.754;8.868;2023-05-20T01:57:09;11.80;95.60
19180;DHT22;9722;48.754;8.868;2023-05-20T02:00:31;11.80;95.50
19180;DHT22;9722;48.754;8.868;2023-05-20T02:03:53;11.90;95.50
19180;DHT22;9722;48.754;8.868;2023-05-20T02:07:14;11.90;95.40
19180;DHT22;9722;48.754;8.868;2023-05-20T02:10:34;12.00;95.40
19180;DHT22;9722;48.754;8.868;2023-05-20T02:13:55;12.00;95.30
19180;DHT22;9722;48.754;8.868;2023-05-20T02:17:16;12.00;95.20
19180;DHT22;9722;48.754;8.868;2023-05-20T02:20:37;12.00;95.20
19180;DHT22;9722;48.754;8.868;2023-05-20T02:23:58;12.00;95.20
19180;DHT22;9722;48.754;8.868;2023-05-20T02:27:18;11.90;95.20
19180;DHT22;9722;48.754;8.868;2023-05-20T02:30:39;11.90;95.30
19180;DHT22;9722;48.754;8.868;2023-05-20T02:34:00;11.80;95.30
19180;DHT22;9722;48.754;8.868;2023-05-20T02:37:20;11.80;95.50
19180;DHT22;9722;48.754;8.868;2023-05-20T02:40:43;11.80;95.60
19180;DHT22;9722;48.754;8.868;2023-05-20T02:44:04;11.70;95.60
19180;DHT22;9722;48.754;8.868;2023-05-20T02:47:25;11.70;95.60
19180;DHT22;9722;48.754;8.868;2023-05-20T02:50:46;11.80;95.70
19180;DHT22;9722;48.754;8.868;2023-05-20T02:54:07;11.80;95.80
19180;DHT22;9722;48.754;8.868;2023-05-20T02:57:27;11.90;95.70
19180;DHT22;9722;48.754;8.868;2023-05-20T03:00:48;11.90;95.70
19180;DHT22;9722;48.754;8.868;2023-05-20T03:04:08;11.90;95.70
19180;DHT22;9722;48.754;8.868;2023-05-20T03:07:29;11.90;95.60
19180;DHT22;9722;48.754;8.868;2023-05-20T03:10:50;11.90;95.60
19180;DHT22;9722;48.754;8.868;2023-05-20T03:14:11;11.90;95.60
19180;DHT22;9722;48.754;8.868;2023-05-20T03:17:31;12.00;95.70
19180;DHT22;9722;48.754;8.868;2023-05-20T03:20:52;12.00;95.70
19180;DHT22;9722;48.754;8.868;2023-05-20T03:24:13;12.00;95.60
19180;DHT22;9722;48.754;8.868;2023-05-20T03:27:34;12.10;95.60
19180;DHT22;9722;48.754;8.868;2023-05-20T03:30:56;12.10;95.60
19180;DHT22;9722;48.754;8.868;2023-05-20T03:34:16;12.10;95.60
19180;DHT22;9722;48.754;8.868;2023-05-20T03:37:37;12.20;95.50
19180;DHT22;9722;48.754;8.868;2023-05-20T03:40:57;12.20;95.50
19180;DHT22;9722;48.754;8.868;2023-05-20T03:44:18;12.20;95.50
19180;DHT22;9722;48.754;8.868;2023-05-20T03:47:39;12.30;95.60
19180;DHT22;9722;48.754;8.868;2023-05-20T03:50:59;12.30;95.50
19180;DHT22;9722;48.754;8.868;2023-05-20T03:54:21;12.30;95.50
19180;DHT22;9722;48.754;8.868;2023-05-20T03:57:41;12.40;95.50
19180;DHT22;9722;48.754;8.868;2023-05-20T04:01:02;12.40;95.40
19180;DHT22;9722;48.754;8.868;2023-05-20T04:04:22;12.50;95.40
19180;DHT22;9722;48.754;8.868;2023-05-20T04:07:43;12.50;95.40
19180;DHT22;9722;48.754;8.868;2023-05-20T04:11:03;12.50;95.30
19180;DHT22;9722;48.754;8.868;2023-05-20T04:14:24;12.50;95.60
19180;DHT22;9722;48.754;8.868;2023-05-20T04:17:44;12.50;95.30
19180;DHT22;9722;48.754;8.868;2023-05-20T04:21:07;12.50;95.30
19180;DHT22;9722;48.754;8.868;2023-05-20T04:24:28;12.50;95.30
19180;DHT22;9722;48.754;8.868;2023-05-20T04:27:49;12.40;95.40
19180;DHT22;9722;48.754;8.868;2023-05-20T04:31:09;12.30;95.60
19180;DHT22;9722;48.754;8.868;2023-05-20T04:34:30;12.30;95.60
19180;DHT22;9722;48.754;8.868;2023-05-20T04:37:54;12.40;95.60
19180;DHT22;9722;48.754;8.868;2023-05-20T04:41:15;12.50;95.70
19180;DHT22;9722;48.754;8.868;2023-05-20T04:44:35;12.50;95.60
19180;DHT22;9722;48.754;8.868;2023-05-20T04:47:56;12.60;95.60
19180;DHT22;9722;48.754;8.868;2023-05-20T04:51:17;12.60;95.50
19180;DHT22;9722;48.754;8.868;2023-05-20T04:54:37;12.70;95.40
19180;DHT22;9722;48.754;8.868;2023-05-20T04:57:59;12.80;95.50
19180;DHT22;9722;48.754;8.868;2023-05-20T05:01:19;12.90;95.40
19180;DHT22;9722;48.754;8.868;2023-05-20T05:04:40;13.00;95.20
19180;DHT22;9722;48.754;8.868;2023-05-20T05:08:02;13.10;95.00
19180;DHT22;9722;48.754;8.868;2023-05-20T05:11:22;13.20;94.90
19180;DHT22;9722;48.754;8.868;2023-05-20T05:14:43;13.30;94.90
19180;DHT22;9722;48.754;8.868;2023-05-20T05:18:03;13.50;94.80
19180;DHT22;9722;48.754;8.868;2023-05-20T05:21:24;13.60;94.60
19180;DHT22;9722;48.754;8.868;2023-05-20T05:24:44;13.70;94.30
19180;DHT22;9722;48.754;8.868;2023-05-20T05:28:05;13.80;94.00
19180;DHT22;9722;48.754;8.868;2023-05-20T05:31:25;13.90;93.70
19180;DHT22;9722;48.754;8.868;2023-05-20T05:34:46;14.00;93.50
19180;DHT22;9722;48.754;8.868;2023-05-20T05:38:07;14.20;93.30
19180;DHT22;9722;48.754;8.868;2023-05-20T05:41:27;14.30;93.00
19180;DHT22;9722;48.754;8.868;2023-05-20T05:44:48;14.40;92.80
19180;DHT22;9722;48.754;8.868;2023-05-20T05:48:08;14.60;92.70
19180;DHT22;9722;48.754;8.868;2023-05-20T05:51:29;14.70;92.40
19180;DHT22;9722;48.754;8.868;2023-05-20T05:54:50;14.90;92.20
19180;DHT22;9722;48.754;8.868;2023-05-20T05:58:10;15.10;91.90
19180;DHT22;9722;48.754;8.868;2023-05-20T06:01:31;15.30;91.60
19180;DHT22;9722;48.754;8.868;2023-05-20T06:04:52;15.40;91.20
19180;DHT22;9722;48.754;8.868;2023-05-20T06:08:13;15.60;90.90
19180;DHT22;9722;48.754;8.868;2023-05-20T06:11:33;15.80;90.60
19180;DHT22;9722;48.754;8.868;2023-05-20T06:14:54;16.00;90.10
19180;DHT22;9722;48.754;8.868;2023-05-20T06:18:14;16.10;89.40
19180;DHT22;9722;48.754;8.868;2023-05-20T06:21:35;16.20;88.70
19180;DHT22;9722;48.754;8.868;2023-05-20T06:24:56;16.30;88.00
19180;DHT22;9722;48.754;8.868;2023-05-20T06:28:19;16.50;87.20
19180;DHT22;9722;48.754;8.868;2023-05-20T06:31:40;16.70;86.10
19180;DHT22;9722;48.754;8.868;2023-05-20T06:35:01;16.90;85.10
19180;DHT22;9722;48.754;8.868;2023-05-20T06:38:22;17.10;84.30
19180;DHT22;9722;48.754;8.868;2023-05-20T06:41:42;17.30;83.10
19180;DHT22;9722;48.754;8.868;2023-05-20T06:45:03;17.60;82.20
19180;DHT22;9722;48.754;8.868;2023-05-20T06:48:24;18.00;80.60
19180;DHT22;9722;48.754;8.868;2023-05-20T06:51:44;18.20;79.00
19180;DHT22;9722;48.754;8.868;2023-05-20T06:55:05;18.30;77.90
19180;DHT22;9722;48.754;8.868;2023-05-20T06:58:26;18.50;76.70
19180;DHT22;9722;48.754;8.868;2023-05-20T07:01:47;18.50;75.90
19180;DHT22;9722;48.754;8.868;2023-05-20T07:05:08;18.50;75.20
19180;DHT22;9722;48.754;8.868;2023-05-20T07:08:29;18.60;75.00
19180;DHT22;9722;48.754;8.868;2023-05-20T07:11:49;18.80;74.60
19180;DHT22;9722;48.754;8.868;2023-05-20T07:15:10;19.20;73.70
19180;DHT22;9722;48.754;8.868;2023-05-20T07:18:30;19.60;72.90
19180;DHT22;9722;48.754;8.868;2023-05-20T07:21:51;20.20;71.20
19180;DHT22;9722;48.754;8.868;2023-05-20T07:25:11;20.40;69.10
19180;DHT22;9722;48.754;8.868;2023-05-20T07:28:32;20.30;68.40
19180;DHT22;9722;48.754;8.868;2023-05-20T07:31:53;20.30;68.20
19180;DHT22;9722;48.754;8.868;2023-05-20T07:35:14;20.20;68.00
19180;DHT22;9722;48.754;8.868;2023-05-20T07:38:41;20.20;68.20
19180;DHT22;9722;48.754;8.868;2023-05-20T07:42:02;20.30;67.90
19180;DHT22;9722;48.754;8.868;2023-05-20T07:45:23;20.30;67.30
19180;DHT22;9722;48.754;8.868;2023-05-20T07:48:43;20.30;67.30
19180;DHT22;9722;48.754;8.868;2023-05-20T07:52:04;20.30;66.90
19180;DHT22;9722;48.754;8.868;2023-05-20T07:55:25;20.30;67.00
19180;DHT22;9722;48.754;8.868;2023-05-20T07:58:52;20.30;67.30
19180;DHT22;9722;48.754;8.868;2023-05-20T08:02:13;20.60;66.30
19180;DHT22;9722;48.754;8.868;2023-05-20T08:05:36;20.90;65.90
19180;DHT22;9722;48.754;8.868;2023-05-20T08:08:57;20.90;65.20
19180;DHT22;9722;48.754;8.868;2023-05-20T08:12:20;21.00;64.70
19180;DHT22;9722;48.754;8.868;2023-05-20T08:15:41;21.30;64.00
19180;DHT22;9722;48.754;8.868;2023-05-20T08:19:02;21.80;62.30
19180;DHT22;9722;48.754;8.868;2023-05-20T08:22:22;22.00;61.20
19180;DHT22;9722;48.754;8.868;2023-05-20T08:25:43;22.00;60.50
19180;DHT22;9722;48.754;8.868;2023-05-20T08:29:06;22.00;60.20
19180;DHT22;9722;48.754;8.868;2023-05-20T08:32:28;22.50;59.20
19180;DHT22;9722;48.754;8.868;2023-05-20T08:35:48;22.70;58.00
19180;DHT22;9722;48.754;8.868;2023-05-20T08:39:09;22.80;57.80
19180;DHT22;9722;48.754;8.868;2023-05-20T08:42:30;22.80;57.70
19180;DHT22;9722;48.754;8.868;2023-05-20T08:45:50;22.80;57.70
19180;DHT22;9722;48.754;8.868;2023-05-20T08:49:14;22.60;57.90
19180;DHT22;9722;48.754;8.868;2023-05-20T08:52:37;22.50;57.90
19180;DHT22;9722;48.754;8.868;2023-05-20T08:56:01;22.50;57.70
19180;DHT22;9722;48.754;8.868;2023-05-20T08:59:22;22.40;57.70
19180;DHT22;9722;48.754;8.868;2023-05-20T09:02:46;22.60;58.50
19180;DHT22;9722;48.754;8.868;2023-05-20T09:06:07;23.30;57.20
19180;DHT22;9722;48.754;8.868;2023-05-20T09:09:29;23.80;56.10
19180;DHT22;9722;48.754;8.868;2023-05-20T09:12:50;23.90;55.90
19180;DHT22;9722;48.754;8.868;2023-05-20T09:16:10;24.70;55.60
19180;DHT22;9722;48.754;8.868;2023-05-20T09:19:32;25.80;53.50
19180;DHT22;9722;48.754;8.868;2023-05-20T09:22:52;26.30;52.30
19180;DHT22;9722;48.754;8.868;2023-05-20T09:26:13;26.90;51.30
19180;DHT22;9722;48.754;8.868;2023-05-20T09:29:34;27.20;50.70
19180;DHT22;9722;48.754;8.868;2023-05-20T09:32:55;27.80;49.50
19180;DHT22;9722;48.754;8.868;2023-05-20T09:36:18;28.10;48.10
19180;DHT22;9722;48.754;8.868;2023-05-20T09:40:00;27.70;47.80
19180;DHT22;9722;48.754;8.868;2023-05-20T09:43:23;27.20;48.00
19180;DHT22;9722;48.754;8.868;2023-05-20T09:46:44;27.00;48.80
19180;DHT22;9722;48.754;8.868;2023-05-20T09:50:07;27.50;47.70
19180;DHT22;9722;48.754;8.868;2023-05-20T09:53:28;27.60;46.90
19180;DHT22;9722;48.754;8.868;2023-05-20T09:56:49;28.00;47.10
19180;DHT22;9722;48.754;8.868;2023-05-20T10:00:11;28.40;46.80
19180;DHT22;9722;48.754;8.868;2023-05-20T10:03:33;28.70;45.80
19180;DHT22;9722;48.754;8.868;2023-05-20T10:11:09;29.70;44.40
19180;DHT22;9722;48.754;8.868;2023-05-20T10:14:48;30.80;43.30
19180;DHT22;9722;48.754;8.868;2023-05-20T10:18:24;31.80;41.70
19180;DHT22;9722;48.754;8.868;2023-05-20T10:21:59;31.70;40.60
19180;DHT22;9722;48.754;8.868;2023-05-20T10:25:25;31.50;40.80
19180;DHT22;9722;48.754;8.868;2023-05-20T10:28:46;31.80;40.70
19180;DHT22;9722;48.754;8.868;2023-05-20T10:32:07;32.60;40.50
19180;DHT22;9722;48.754;8.868;2023-05-20T10:35:27;32.80;39.40
19180;DHT22;9722;48.754;8.868;2023-05-20T10:38:54;33.00;38.90
19180;DHT22;9722;48.754;8.868;2023-05-20T10:42:15;32.60;38.50
19180;DHT22;9722;48.754;8.868;2023-05-20T10:45:49;32.10;39.20
19180;DHT22;9722;48.754;8.868;2023-05-20T10:49:17;31.30;39.90
19180;DHT22;9722;48.754;8.868;2023-05-20T10:52:38;30.30;40.60
19180;DHT22;9722;48.754;8.868;2023-05-20T10:56:01;29.30;41.70
19180;DHT22;9722;48.754;8.868;2023-05-20T10:59:22;28.50;42.90
19180;DHT22;9722;48.754;8.868;2023-05-20T11:02:43;28.10;43.90
19180;DHT22;9722;48.754;8.868;2023-05-20T11:06:15;27.80;44.30
19180;DHT22;9722;48.754;8.868;2023-05-20T11:09:35;27.30;44.60
19180;DHT22;9722;48.754;8.868;2023-05-20T11:12:56;27.40;45.00
19180;DHT22;9722;48.754;8.868;2023-05-20T11:16:18;28.00;44.40
19180;DHT22;9722;48.754;8.868;2023-05-20T11:19:39;28.90;43.70
19180;DHT22;9722;48.754;8.868;2023-05-20T11:23:01;30.00;42.40
19180;DHT22;9722;48.754;8.868;2023-05-20T11:26:22;30.60;41.30
19180;DHT22;9722;48.754;8.868;2023-05-20T11:29:43;31.40;40.60
19180;DHT22;9722;48.754;8.868;2023-05-20T11:33:04;32.40;39.60
19180;DHT22;9722;48.754;8.868;2023-05-20T11:36:24;32.70;38.30
19180;DHT22;9722;48.754;8.868;2023-05-20T11:39:48;32.60;38.20
19180;DHT22;9722;48.754;8.868;2023-05-20T11:43:10;32.50;38.30
19180;DHT22;9722;48.754;8.868;2023-05-20T11:46:31;32.70;38.40
19180;DHT22;9722;48.754;8.868;2023-05-20T11:49:51;33.00;37.90
19180;DHT22;9722;48.754;8.868;2023-05-20T11:53:17;32.70;37.80
19180;DHT22;9722;48.754;8.868;2023-05-20T11:56:39;32.40;38.20
19180;DHT22;9722;48.754;8.868;2023-05-20T12:00:02;32.20;38.50
19180;DHT22;9722;48.754;8.868;2023-05-20T12:03:26;32.20;38.50
19180;DHT22;9722;48.754;8.868;2023-05-20T12:06:46;32.00;38.40
19180;DHT22;9722;48.754;8.868;2023-05-20T12:10:08;31.20;38.80
19180;DHT22;9722;48.754;8.868;2023-05-20T12:13:28;30.20;40.00
19180;DHT22;9722;48.754;8.868;2023-05-20T12:16:49;29.40;41.10
19180;DHT22;9722;48.754;8.868;2023-05-20T12:20:11;29.10;41.90
19180;DHT22;9722;48.754;8.868;2023-05-20T12:23:32;29.20;42.40
19180;DHT22;9722;48.754;8.868;2023-05-20T12:26:53;30.00;41.50
19180;DHT22;9722;48.754;8.868;2023-05-20T12:30:21;30.30;40.80
19180;DHT22;9722;48.754;8.868;2023-05-20T12:33:42;30.40;41.00
19180;DHT22;9722;48.754;8.868;2023-05-20T12:37:02;30.70;40.80
19180;DHT22;9722;48.754;8.868;2023-05-20T12:40:23;31.40;40.00
19180;DHT22;9722;48.754;8.868;2023-05-20T12:43:43;32.20;39.00
19180;DHT22;9722;48.754;8.868;2023-05-20T12:47:04;32.10;38.30
19180;DHT22;9722;48.754;8.868;2023-05-20T12:50:25;32.30;38.70
19180;DHT22;9722;48.754;8.868;2023-05-20T12:53:46;32.90;38.10
19180;DHT22;9722;48.754;8.868;2023-05-20T12:57:06;32.80;38.00
19180;DHT22;9722;48.754;8.868;2023-05-20T13:00:27;32.40;37.60
19180;DHT22;9722;48.754;8.868;2023-05-20T13:03:49;31.60;38.30
19180;DHT22;9722;48.754;8.868;2023-05-20T13:07:12;31.10;39.10
19180;DHT22;9722;48.754;8.868;2023-05-20T13:10:33;31.30;39.30
19180;DHT22;9722;48.754;8.868;2023-05-20T13:13:56;31.20;39.10
19180;DHT22;9722;48.754;8.868;2023-05-20T13:17:17;30.90;38.60
19180;DHT22;9722;48.754;8.868;2023-05-20T13:20:37;30.50;39.40
19180;DHT22;9722;48.754;8.868;2023-05-20T13:23:58;30.00;40.10
19180;DHT22;9722;48.754;8.868;2023-05-20T13:27:20;29.50;40.60
19180;DHT22;9722;48.754;8.868;2023-05-20T13:30:40;29.00;41.50
19180;DHT22;9722;48.754;8.868;2023-05-20T13:34:01;28.60;42.40
19180;DHT22;9722;48.754;8.868;2023-05-20T13:37:21;28.30;43.00
19180;DHT22;9722;48.754;8.868;2023-05-20T13:40:42;28.00;43.20
19180;DHT22;9722;48.754;8.868;2023-05-20T13:44:03;27.70;43.60
19180;DHT22;9722;48.754;8.868;2023-05-20T13:47:24;27.60;44.10
19180;DHT22;9722;48.754;8.868;2023-05-20T13:50:44;27.70;44.40
19180;DHT22;9722;48.754;8.868;2023-05-20T13:54:05;27.90;44.20
19180;DHT22;9722;48.754;8.868;2023-05-20T13:57:25;28.00;44.20
19180;DHT22;9722;48.754;8.868;2023-05-20T14:00:46;28.20;43.80
19180;DHT22;9722;48.754;8.868;2023-05-20T14:04:07;28.10;43.70
19180;DHT22;9722;48.754;8.868;2023-05-20T14:07:27;28.10;43.60
19180;DHT22;9722;48.754;8.868;2023-05-20T14:10:48;28.00;43.60
19180;DHT22;9722;48.754;8.868;2023-05-20T14:14:08;27.90;43.70
19180;DHT22;9722;48.754;8.868;2023-05-20T14:17:29;27.90;43.80
19180;DHT22;9722;48.754;8.868;2023-05-20T14:20:49;28.10;43.90
19180;DHT22;9722;48.754;8.868;2023-05-20T14:24:10;28.00;44.00
19180;DHT22;9722;48.754;8.868;2023-05-20T14:27:30;27.80;44.30
19180;DHT22;9722;48.754;8.868;2023-05-20T14:30:51;27.60;44.70
19180;DHT22;9722;48.754;8.868;2023-05-20T14:34:12;27.50;44.80
19180;DHT22;9722;48.754;8.868;2023-05-20T14:37:33;27.40;44.90
19180;DHT22;9722;48.754;8.868;2023-05-20T14:40:53;27.50;44.90
19180;DHT22;9722;48.754;8.868;2023-05-20T14:44:14;27.60;45.00
19180;DHT22;9722;48.754;8.868;2023-05-20T14:47:34;27.50;44.80
19180;DHT22;9722;48.754;8.868;2023-05-20T14:50:55;27.20;45.40
19180;DHT22;9722;48.754;8.868;2023-05-20T14:54:15;26.90;45.90
19180;DHT22;9722;48.754;8.868;2023-05-20T14:57:38;26.70;46.30
19180;DHT22;9722;48.754;8.868;2023-05-20T15:00:59;26.60;46.20
19180;DHT22;9722;48.754;8.868;2023-05-20T15:04:19;26.40;46.80
19180;DHT22;9722;48.754;8.868;2023-05-20T15:07:40;26.30;46.60
19180;DHT22;9722;48.754;8.868;2023-05-20T15:11:00;26.20;46.70
19180;DHT22;9722;48.754;8.868;2023-05-20T15:14:21;26.10;47.30
19180;DHT22;9722;48.754;8.868;2023-05-20T15:17:41;26.00;47.70
19180;DHT22;9722;48.754;8.868;2023-05-20T15:21:02;25.90;47.80
19180;DHT22;9722;48.754;8.868;2023-05-20T15:24:22;25.70;47.60
19180;DHT22;9722;48.754;8.868;2023-05-20T15:27:43;25.60;47.70
19180;DHT22;9722;48.754;8.868;2023-05-20T15:31:04;25.50;47.80
19180;DHT22;9722;48.754;8.868;2023-05-20T15:34:24;25.50;47.90
19180;DHT22;9722;48.754;8.868;2023-05-20T15:37:45;25.30;48.10
19180;DHT22;9722;48.754;8.868;2023-05-20T15:41:05;25.10;48.40
19180;DHT22;9722;48.754;8.868;2023-05-20T15:44:27;24.90;48.80
19180;DHT22;9722;48.754;8.868;2023-05-20T15:47:48;24.70;48.90
19180;DHT22;9722;48.754;8.868;2023-05-20T15:51:08;24.60;49.40
19180;DHT22;9722;48.754;8.868;2023-05-20T15:54:29;24.50;49.70
19180;DHT22;9722;48.754;8.868;2023-05-20T15:57:50;24.40;49.80
19180;DHT22;9722;48.754;8.868;2023-05-20T16:01:10;24.20;50.10
19180;DHT22;9722;48.754;8.868;2023-05-20T16:04:31;24.10;50.30
19180;DHT22;9722;48.754;8.868;2023-05-20T16:07:51;23.90;50.50
19180;DHT22;9722;48.754;8.868;2023-05-20T16:11:16;23.80;50.70
19180;DHT22;9722;48.754;8.868;2023-05-20T16:14:36;23.70;50.70
19180;DHT22;9722;48.754;8.868;2023-05-20T16:17:57;23.70;50.80
19180;DHT22;9722;48.754;8.868;2023-05-20T16:21:18;23.80;50.90
19180;DHT22;9722;48.754;8.868;2023-05-20T16:24:39;23.80;50.90
19180;DHT22;9722;48.754;8.868;2023-05-20T16:28:00;23.90;51.10
19180;DHT22;9722;48.754;8.868;2023-05-20T16:31:20;23.90;51.20
19180;DHT22;9722;48.754;8.868;2023-05-20T16:34:41;23.80;51.50
19180;DHT22;9722;48.754;8.868;2023-05-20T16:38:02;23.70;51.50
19180;DHT22;9722;48.754;8.868;2023-05-20T16:41:22;23.70;51.70
19180;DHT22;9722;48.754;8.868;2023-05-20T16:44:43;23.60;52.30
19180;DHT22;9722;48.754;8.868;2023-05-20T16:48:03;23.60;53.20
19180;DHT22;9722;48.754;8.868;2023-05-20T16:51:24;23.50;53.80
19180;DHT22;9722;48.754;8.868;2023-05-20T16:54:45;23.50;54.30
19180;DHT22;9722;48.754;8.868;2023-05-20T16:58:06;23.50;54.60
19180;DHT22;9722;48.754;8.868;2023-05-20T17:01:26;23.50;54.80
19180;DHT22;9722;48.754;8.868;2023-05-20T17:04:48;23.40;55.10
19180;DHT22;9722;48.754;8.868;2023-05-20T17:08:08;23.30;55.30
19180;DHT22;9722;48.754;8.868;2023-05-20T17:11:29;23.20;55.50
19180;DHT22;9722;48.754;8.868;2023-05-20T17:14:49;23.10;55.90
19180;DHT22;9722;48.754;8.868;2023-05-20T17:18:10;23.00;56.30
19180;DHT22;9722;48.754;8.868;2023-05-20T17:21:30;22.80;56.50
19180;DHT22;9722;48.754;8.868;2023-05-20T17:24:51;22.70;56.70
19180;DHT22;9722;48.754;8.868;2023-05-20T17:28:11;22.70;57.10
19180;DHT22;9722;48.754;8.868;2023-05-20T17:31:32;22.60;57.20
19180;DHT22;9722;48.754;8.868;2023-05-20T17:34:52;22.50;57.30
19180;DHT22;9722;48.754;8.868;2023-05-20T17:38:13;22.40;57.60
19180;DHT22;9722;48.754;8.868;2023-05-20T17:41:33;22.20;57.60
19180;DHT22;9722;48.754;8.868;2023-05-20T17:44:54;22.20;58.00
19180;DHT22;9722;48.754;8.868;2023-05-20T17:48:14;22.10;58.10
19180;DHT22;9722;48.754;8.868;2023-05-20T17:51:35;22.00;58.20
19180;DHT22;9722;48.754;8.868;2023-05-20T17:54:55;21.90;58.50
19180;DHT22;9722;48.754;8.868;2023-05-20T17:58:16;21.70;58.60
19180;DHT22;9722;48.754;8.868;2023-05-20T18:01:36;21.60;58.80
19180;DHT22;9722;48.754;8.868;2023-05-20T18:04:57;21.50;59.10
19180;DHT22;9722;48.754;8.868;2023-05-20T18:08:17;21.40;59.40
19180;DHT22;9722;48.754;8.868;2023-05-20T18:11:38;21.20;59.60
19180;DHT22;9722;48.754;8.868;2023-05-20T18:14:59;21.20;60.10
19180;DHT22;9722;48.754;8.868;2023-05-20T18:18:19;21.10;60.60
19180;DHT22;9722;48.754;8.868;2023-05-20T18:21:40;20.90;61.10
19180;DHT22;9722;48.754;8.868;2023-05-20T18:25:00;20.80;61.50
19180;DHT22;9722;48.754;8.868;2023-05-20T18:28:21;20.70;62.40
19180;DHT22;9722;48.754;8.868;2023-05-20T18:31:41;20.60;63.00
19180;DHT22;9722;48.754;8.868;2023-05-20T18:35:02;20.40;63.60
19180;DHT22;9722;48.754;8.868;2023-05-20T18:38:22;20.30;64.20
19180;DHT22;9722;48.754;8.868;2023-05-20T18:41:43;20.20;64.70
19180;DHT22;9722;48.754;8.868;2023-05-20T18:45:04;20.10;65.20
19180;DHT22;9722;48.754;8.868;2023-05-20T18:48:24;20.00;66.40
19180;DHT22;9722;48.754;8.868;2023-05-20T18:51:45;19.90;66.00
19180;DHT22;9722;48.754;8.868;2023-05-20T18:55:06;19.70;66.60
19180;DHT22;9722;48.754;8.868;2023-05-20T18:58:27;19.60;66.50
19180;DHT22;9722;48.754;8.868;2023-05-20T19:01:48;19.50;67.30
19180;DHT22;9722;48.754;8.868;2023-05-20T19:05:10;19.40;67.80
19180;DHT22;9722;48.754;8.868;2023-05-20T19:08:30;19.30;68.30
19180;DHT22;9722;48.754;8.868;2023-05-20T19:11:51;19.20;68.60
19180;DHT22;9722;48.754;8.868;2023-05-20T19:15:15;19.10;69.00
19180;DHT22;9722;48.754;8.868;2023-05-20T19:18:38;19.10;69.50
19180;DHT22;9722;48.754;8.868;2023-05-20T19:21:58;19.00;70.00
19180;DHT22;9722;48.754;8.868;2023-05-20T19:25:19;18.90;70.40
19180;DHT22;9722;48.754;8.868;2023-05-20T19:28:39;18.80;70.70
19180;DHT22;9722;48.754;8.868;2023-05-20T19:32:00;18.80;71.30
19180;DHT22;9722;48.754;8.868;2023-05-20T19:35:20;18.70;71.70
19180;DHT22;9722;48.754;8.868;2023-05-20T19:38:41;18.60;71.90
19180;DHT22;9722;48.754;8.868;2023-05-20T19:42:02;18.60;72.40
19180;DHT22;9722;48.754;8.868;2023-05-20T19:45:23;18.50;72.70
19180;DHT22;9722;48.754;8.868;2023-05-20T19:48:43;18.50;73.20
19180;DHT22;9722;48.754;8.868;2023-05-20T19:52:04;18.40;73.50
19180;DHT22;9722;48.754;8.868;2023-05-20T19:55:26;18.30;74.00
19180;DHT22;9722;48.754;8.868;2023-05-20T19:58:47;18.30;74.50
19180;DHT22;9722;48.754;8.868;2023-05-20T20:02:07;18.20;75.00
19180;DHT22;9722;48.754;8.868;2023-05-20T20:05:28;18.10;75.30
19180;DHT22;9722;48.754;8.868;2023-05-20T20:08:49;18.10;75.80
19180;DHT22;9722;48.754;8.868;2023-05-20T20:12:10;18.00;76.20
19180;DHT22;9722;48.754;8.868;2023-05-20T20:15:30;17.90;76.90
19180;DHT22;9722;48.754;8.868;2023-05-20T20:18:52;17.90;77.20
19180;DHT22;9722;48.754;8.868;2023-05-20T20:22:14;17.80;77.90
19180;DHT22;9722;48.754;8.868;2023-05-20T20:25:36;17.70;78.30
19180;DHT22;9722;48.754;8.868;2023-05-20T20:28:59;17.60;78.80
19180;DHT22;9722;48.754;8.868;2023-05-20T20:32:19;17.60;79.20
19180;DHT22;9722;48.754;8.868;2023-05-20T20:35:40;17.50;79.60
19180;DHT22;9722;48.754;8.868;2023-05-20T20:39:01;17.40;80.10
19180;DHT22;9722;48.754;8.868;2023-05-20T20:42:24;17.40;80.50
19180;DHT22;9722;48.754;8.868;2023-05-20T20:45:45;17.30;80.90
19180;DHT22;9722;48.754;8.868;2023-05-20T20:49:06;17.30;81.30
19180;DHT22;9722;48.754;8.868;2023-05-20T20:52:26;17.20;81.50
19180;DHT22;9722;48.754;8.868;2023-05-20T20:55:47;17.20;82.00
19180;DHT22;9722;48.754;8.868;2023-05-20T20:59:10;17.10;82.00
19180;DHT22;9722;48.754;8.868;2023-05-20T21:02:32;17.10;82.60
19180;DHT22;9722;48.754;8.868;2023-05-20T21:05:53;17.00;82.90
19180;DHT22;9722;48.754;8.868;2023-05-20T21:09:14;17.00;83.30
19180;DHT22;9722;48.754;8.868;2023-05-20T21:12:34;16.90;83.80
19180;DHT22;9722;48.754;8.868;2023-05-20T21:15:55;16.90;84.30
19180;DHT22;9722;48.754;8.868;2023-05-20T21:19:16;16.90;84.80
19180;DHT22;9722;48.754;8.868;2023-05-20T21:22:36;16.80;85.30
19180;DHT22;9722;48.754;8.868;2023-05-20T21:25:57;16.70;85.90
19180;DHT22;9722;48.754;8.868;2023-05-20T21:29:17;16.70;86.40
19180;DHT22;9722;48.754;8.868;2023-05-20T21:32:38;16.60;87.00
19180;DHT22;9722;48.754;8.868;2023-05-20T21:35:58;16.50;87.20